createdAt,value
2019-01-18T00:00:24.175Z,95091.95
2019-01-18T00:02:57.073Z,95079.52
2019-01-18T00:05:29.654Z,95084.18
2019-01-18T00:08:02.278Z,95081.26
2019-01-18T00:10:34.806Z,95073.24
2019-01-18T00:13:07.584Z,95072.20
2019-01-18T00:15:40.198Z,95070.36
2019-01-18T00:18:12.816Z,95075.25
2019-01-18T00:20:45.478Z,95083.40
2019-01-18T00:23:18.066Z,95075.59
2019-01-18T00:25:50.757Z,95072.56
2019-01-18T00:28:23.428Z,95075.71
2019-01-18T00:30:56.085Z,95071.94
2019-01-18T00:33:28.737Z,95071.77
2019-01-18T00:36:01.322Z,95073.61
2019-01-18T00:38:33.959Z,95078.17
2019-01-18T00:41:06.514Z,95087.03
2019-01-18T00:43:39.137Z,95081.70
2019-01-18T00:46:11.789Z,95086.36
2019-01-18T00:48:44.386Z,95082.91
2019-01-18T00:51:16.955Z,95089.17
2019-01-18T00:53:49.570Z,95088.97
2019-01-18T00:56:22.213Z,95086.80
2019-01-18T00:58:54.827Z,95082.63
2019-01-18T01:01:27.400Z,95077.03
2019-01-18T01:04:00.261Z,95073.61
2019-01-18T01:06:32.886Z,95081.98
2019-01-18T01:09:07.527Z,95081.62
2019-01-18T01:11:40.207Z,95079.73
2019-01-18T01:14:12.867Z,95082.48
2019-01-18T01:16:45.534Z,95082.95
2019-01-18T01:19:18.152Z,95079.23
2019-01-18T01:21:53.004Z,95085.33
2019-01-18T01:24:25.639Z,95083.09
2019-01-18T01:26:58.207Z,95089.17
2019-01-18T01:29:30.875Z,95090.32
2019-01-18T01:32:03.418Z,95103.61
2019-01-18T01:34:36.008Z,95101.11
2019-01-18T01:37:08.626Z,95105.03
2019-01-18T01:39:41.241Z,95097.27
2019-01-18T01:42:13.939Z,95101.44
2019-01-18T01:44:46.581Z,95101.72
2019-01-18T01:47:19.265Z,95100.30
2019-01-18T01:49:52.050Z,95102.33
2019-01-18T01:52:24.695Z,95102.18
2019-01-18T01:54:57.994Z,95103.67
2019-01-18T01:57:30.794Z,95111.91
2019-01-18T02:00:03.528Z,95109.95
2019-01-18T02:02:36.168Z,95118.86
2019-01-18T02:05:09.071Z,95123.48
2019-01-18T02:07:41.752Z,95124.81
2019-01-18T02:10:15.920Z,95123.34
2019-01-18T02:12:48.815Z,95125.52
2019-01-18T02:15:24.927Z,95128.80
2019-01-18T02:17:57.601Z,95127.85
2019-01-18T02:20:30.381Z,95132.66
2019-01-18T02:23:03.051Z,95132.03
2019-01-18T02:25:37.747Z,95138.30
2019-01-18T02:28:10.496Z,95133.64
2019-01-18T02:30:43.085Z,95132.84
2019-01-18T02:33:15.761Z,95131.67
2019-01-18T02:35:48.406Z,95138.44
2019-01-18T02:38:21.037Z,95133.59
2019-01-18T02:40:53.581Z,95138.82
2019-01-18T02:43:26.186Z,95141.94
2019-01-18T02:46:00.372Z,95146.50
2019-01-18T02:48:33.053Z,95149.81
2019-01-18T02:51:05.719Z,95144.55
2019-01-18T02:53:38.299Z,95143.89
2019-01-18T02:56:10.990Z,95140.38
2019-01-18T02:58:43.551Z,95148.44
2019-01-18T03:01:16.146Z,95153.14
2019-01-18T03:03:48.711Z,95143.97
2019-01-18T03:06:21.293Z,95146.12
2019-01-18T03:08:53.841Z,95137.48
2019-01-18T03:11:26.416Z,95142.95
2019-01-18T03:13:58.987Z,95140.30
2019-01-18T03:16:31.572Z,95141.09
2019-01-18T03:19:04.113Z,95147.94
2019-01-18T03:21:36.749Z,95145.41
2019-01-18T03:24:09.431Z,95144.85
2019-01-18T03:26:42.022Z,95153.39
2019-01-18T03:29:14.600Z,95154.44
2019-01-18T03:31:47.147Z,95153.17
2019-01-18T03:34:19.846Z,95151.62
2019-01-18T03:36:52.420Z,95155.58
2019-01-18T03:39:25.067Z,95161.05
2019-01-18T03:41:57.779Z,95155.83
2019-01-18T03:44:30.371Z,95153.03
2019-01-18T03:47:03.040Z,95152.48
2019-01-18T03:49:35.636Z,95163.48
2019-01-18T03:52:08.346Z,95175.45
2019-01-18T03:54:40.998Z,95174.17
2019-01-18T03:57:13.659Z,95171.75
2019-01-18T03:59:46.311Z,95173.73
2019-01-18T04:02:18.970Z,95179.05
2019-01-18T04:04:51.583Z,95177.51
2019-01-18T04:07:24.268Z,95174.63
2019-01-18T04:09:56.907Z,95174.47
2019-01-18T04:12:29.502Z,95182.45
2019-01-18T04:15:02.167Z,95181.84
2019-01-18T04:17:34.807Z,95180.13
2019-01-18T04:20:09.421Z,95184.08
2019-01-18T04:22:41.975Z,95177.73
2019-01-18T04:25:18.153Z,95179.25
2019-01-18T04:27:50.892Z,95168.69
2019-01-18T04:30:24.312Z,95172.08
2019-01-18T04:32:57.004Z,95182.95
2019-01-18T04:35:29.650Z,95179.48
2019-01-18T04:38:02.211Z,95175.72
2019-01-18T04:40:34.917Z,95184.62
2019-01-18T04:43:07.500Z,95178.99
2019-01-18T04:45:40.122Z,95178.11
2019-01-18T04:48:12.766Z,95188.70
2019-01-18T04:50:45.417Z,95189.05
2019-01-18T04:53:18.084Z,95195.91
2019-01-18T04:55:53.657Z,95191.30
2019-01-18T04:58:26.663Z,95186.02
2019-01-18T05:00:59.362Z,95196.28
2019-01-18T05:03:31.966Z,95206.30
2019-01-18T05:06:04.986Z,95205.25
2019-01-18T05:08:37.600Z,95200.13
2019-01-18T05:11:10.161Z,95198.35
2019-01-18T05:13:42.957Z,95195.73
2019-01-18T05:16:15.670Z,95198.86
2019-01-18T05:18:48.354Z,95190.87
2019-01-18T05:21:20.981Z,95194.80
2019-01-18T05:23:53.571Z,95193.08
2019-01-18T05:26:26.129Z,95196.27
2019-01-18T05:28:58.777Z,95202.03
2019-01-18T05:31:31.418Z,95205.61
2019-01-18T05:34:04.001Z,95209.95
2019-01-18T05:36:36.559Z,95210.30
2019-01-18T05:39:09.304Z,95210.89
2019-01-18T05:41:41.869Z,95205.13
2019-01-18T05:44:14.429Z,95206.13
2019-01-18T05:46:47.672Z,95202.81
2019-01-18T05:49:20.248Z,95212.16
2019-01-18T05:51:52.896Z,95216.64
2019-01-18T05:54:25.652Z,95225.78
2019-01-18T05:56:58.334Z,95214.92
2019-01-18T05:59:30.949Z,95220.43
2019-01-18T06:02:05.247Z,95214.63
2019-01-18T06:04:37.948Z,95215.08
2019-01-18T06:07:10.673Z,95217.70
2019-01-18T06:09:43.238Z,95227.58
2019-01-18T06:12:15.970Z,95223.83
2019-01-18T06:14:48.792Z,95221.41
2019-01-18T06:17:21.345Z,95231.54
2019-01-18T06:19:54.023Z,95228.17
2019-01-18T06:22:26.650Z,95228.77
2019-01-18T06:24:59.319Z,95238.25
2019-01-18T06:27:32.373Z,95233.02
2019-01-18T06:30:06.395Z,95229.09
2019-01-18T06:32:39.027Z,95225.09
2019-01-18T06:35:11.839Z,95231.73
2019-01-18T06:37:44.918Z,95232.22
2019-01-18T06:40:17.897Z,95231.83
2019-01-18T06:42:50.792Z,95235.42
2019-01-18T06:45:24.511Z,95237.20
2019-01-18T06:47:57.151Z,95236.64
2019-01-18T06:50:30.165Z,95238.78
2019-01-18T06:53:02.922Z,95236.87
2019-01-18T06:55:35.548Z,95242.47
2019-01-18T06:58:08.277Z,95247.37
2019-01-18T07:00:40.930Z,95249.21
2019-01-18T07:03:13.548Z,95248.31
2019-01-18T07:05:46.315Z,95246.08
2019-01-18T07:08:21.657Z,95255.13
2019-01-18T07:10:54.359Z,95265.67
2019-01-18T07:13:27.120Z,95266.57
2019-01-18T07:16:00.799Z,95272.92
2019-01-18T07:18:33.398Z,95267.91
2019-01-18T07:21:06.129Z,95278.74
2019-01-18T07:23:38.872Z,95279.80
2019-01-18T07:26:11.560Z,95281.28
2019-01-18T07:28:44.216Z,95288.68
2019-01-18T07:31:16.992Z,95288.75
2019-01-18T07:33:49.664Z,95282.23
2019-01-18T07:36:22.279Z,95287.59
2019-01-18T07:39:00.467Z,95293.35
2019-01-18T07:41:29.478Z,95294.25
2019-01-18T07:44:02.063Z,95299.95
2019-01-18T07:46:34.757Z,95298.61
2019-01-18T07:49:07.403Z,95296.30
2019-01-18T07:51:40.110Z,95302.08
2019-01-18T07:54:12.721Z,95295.20
2019-01-18T07:56:45.428Z,95295.33
2019-01-18T07:59:17.991Z,95302.64
2019-01-18T08:01:50.608Z,95305.33
2019-01-18T08:04:23.183Z,95306.18
2019-01-18T08:06:55.891Z,95305.28
2019-01-18T08:09:28.466Z,95306.66
2019-01-18T08:12:01.189Z,95306.53
2019-01-18T08:14:33.975Z,95311.52
2019-01-18T08:17:06.561Z,95317.94
2019-01-18T08:19:39.208Z,95307.27
2019-01-18T08:22:12.008Z,95314.07
2019-01-18T08:24:44.610Z,95315.89
2019-01-18T08:27:17.183Z,95314.31
2019-01-18T08:29:49.870Z,95319.67
2019-01-18T08:32:22.501Z,95321.77
2019-01-18T08:34:55.125Z,95316.23
2019-01-18T08:37:27.681Z,95313.33
2019-01-18T08:40:00.223Z,95316.67
2019-01-18T08:42:32.805Z,95316.22
2019-01-18T08:45:06.820Z,95320.63
2019-01-18T08:47:39.468Z,95316.50
2019-01-18T08:50:14.861Z,95312.59
2019-01-18T08:52:47.506Z,95316.16
2019-01-18T08:55:20.205Z,95310.62
2019-01-18T08:57:55.848Z,95312.19
2019-01-18T09:00:28.775Z,95308.21
2019-01-18T09:03:01.519Z,95311.28
2019-01-18T09:05:34.414Z,95313.69
2019-01-18T09:08:07.259Z,95305.45
2019-01-18T09:10:39.979Z,95313.66
2019-01-18T09:13:12.567Z,95307.88
2019-01-18T09:15:45.132Z,95310.78
2019-01-18T09:18:17.834Z,95312.38
2019-01-18T09:20:50.370Z,95309.13
2019-01-18T09:23:22.908Z,95304.55
2019-01-18T09:25:55.498Z,95301.36
2019-01-18T09:28:28.160Z,95307.98
2019-01-18T09:31:00.701Z,95305.05
2019-01-18T09:33:33.329Z,95310.08
2019-01-18T09:36:06.071Z,95311.77
2019-01-18T09:38:38.661Z,95297.11
2019-01-18T09:41:11.376Z,95301.73
2019-01-18T09:43:44.005Z,95297.56
2019-01-18T09:46:16.554Z,95299.63
2019-01-18T09:48:49.124Z,95299.81
2019-01-18T09:51:21.699Z,95300.48
2019-01-18T09:53:54.363Z,95304.34
2019-01-18T09:56:26.978Z,95305.30
2019-01-18T09:58:59.683Z,95307.45
2019-01-18T10:01:32.223Z,95305.44
2019-01-18T10:04:04.824Z,95306.16
2019-01-18T10:06:37.451Z,95302.19
2019-01-18T10:09:10.413Z,95309.03
2019-01-18T10:11:44.170Z,95315.47
2019-01-18T10:14:16.788Z,95312.66
2019-01-18T10:16:49.354Z,95310.10
2019-01-18T10:19:22.022Z,95303.99
2019-01-18T10:21:54.562Z,95305.74
2019-01-18T10:24:27.134Z,95302.23
2019-01-18T10:26:59.768Z,95307.37
2019-01-18T10:29:33.480Z,95300.11
2019-01-18T10:32:06.200Z,95298.95
2019-01-18T10:34:38.866Z,95296.08
2019-01-18T10:37:11.522Z,95290.44
2019-01-18T10:39:44.114Z,95280.90
2019-01-18T10:42:16.794Z,95278.81
2019-01-18T10:44:49.384Z,95278.88
2019-01-18T10:47:21.974Z,95278.27
2019-01-18T10:49:54.764Z,95274.14
2019-01-18T10:52:27.446Z,95266.80
2019-01-18T10:55:00.175Z,95268.10
2019-01-18T10:57:32.742Z,95265.25
2019-01-18T11:00:08.249Z,95269.08
2019-01-18T11:02:40.945Z,95261.23
2019-01-18T11:05:13.898Z,95266.28
2019-01-18T11:07:46.560Z,95252.85
2019-01-18T11:10:19.302Z,95258.64
2019-01-18T11:12:54.827Z,95258.81
2019-01-18T11:15:46.509Z,95267.31
2019-01-18T11:18:19.122Z,95255.92
2019-01-18T11:21:09.554Z,95261.01
2019-01-18T11:23:42.182Z,95249.13
2019-01-18T11:26:14.868Z,95245.13
2019-01-18T11:28:47.488Z,95239.88
2019-01-18T11:31:23.379Z,95233.43
2019-01-18T11:33:54.487Z,95234.57
2019-01-18T11:36:27.139Z,95222.16
2019-01-18T11:38:59.805Z,95221.33
2019-01-18T11:41:32.462Z,95224.77
2019-01-18T11:44:05.781Z,95217.03
2019-01-18T11:46:38.383Z,95220.74
2019-01-18T11:49:11.089Z,95216.14
2019-01-18T11:51:43.806Z,95210.70
2019-01-18T11:54:16.415Z,95219.59
2019-01-18T11:56:49.152Z,95217.55
2019-01-18T11:59:21.787Z,95208.30
2019-01-18T12:01:54.390Z,95212.48
2019-01-18T12:04:27.118Z,95199.26
2019-01-18T12:06:59.820Z,95200.80
2019-01-18T12:09:32.587Z,95202.32
2019-01-18T12:12:05.221Z,95196.14
2019-01-18T12:14:37.794Z,95193.72
2019-01-18T12:17:10.414Z,95186.55
2019-01-18T12:19:43.103Z,95186.43
2019-01-18T12:22:15.752Z,95187.84
2019-01-18T12:24:48.314Z,95186.09
2019-01-18T12:27:20.976Z,95178.73
2019-01-18T12:29:53.559Z,95189.03
2019-01-18T12:32:28.801Z,95180.87
2019-01-18T12:35:00.712Z,95179.22
2019-01-18T12:37:33.593Z,95183.12
2019-01-18T12:40:06.437Z,95183.20
2019-01-18T12:42:39.159Z,95180.99
2019-01-18T12:45:16.512Z,95177.05
2019-01-18T12:47:49.156Z,95176.82
2019-01-18T12:50:35.883Z,95179.22
2019-01-18T12:53:09.078Z,95173.73
2019-01-18T12:55:41.721Z,95174.31
2019-01-18T12:58:14.465Z,95165.70
2019-01-18T13:00:47.057Z,95167.27
2019-01-18T13:03:19.653Z,95162.03
2019-01-18T13:05:54.229Z,95165.34
2019-01-18T13:08:26.927Z,95150.25
2019-01-18T13:11:02.727Z,95148.80
2019-01-18T13:13:35.303Z,95149.14
2019-01-18T13:16:33.950Z,95142.38
2019-01-18T13:19:28.937Z,95141.11
2019-01-18T13:22:01.582Z,95145.77
2019-01-18T13:24:34.294Z,95144.78
2019-01-18T13:27:06.975Z,95149.72
2019-01-18T13:29:39.624Z,95152.97
2019-01-18T13:32:12.236Z,95152.58
2019-01-18T13:34:44.875Z,95150.50
2019-01-18T13:37:17.619Z,95160.91
2019-01-18T13:39:50.223Z,95166.58
2019-01-18T13:42:23.080Z,95160.08
2019-01-18T13:44:55.761Z,95167.70
2019-01-18T13:47:28.437Z,95166.80
2019-01-18T13:50:03.289Z,95158.23
2019-01-18T13:52:36.005Z,95161.20
2019-01-18T13:55:15.129Z,95162.01
2019-01-18T13:57:47.854Z,95159.33
2019-01-18T14:00:20.593Z,95164.95
2019-01-18T14:02:53.316Z,95165.38
2019-01-18T14:05:26.019Z,95167.53
2019-01-18T14:07:59.126Z,95171.21
2019-01-18T14:10:31.814Z,95167.63
2019-01-18T14:13:04.514Z,95169.05
2019-01-18T14:15:37.102Z,95171.05
2019-01-18T14:18:09.864Z,95172.55
2019-01-18T14:20:42.718Z,95163.96
2019-01-18T14:23:15.411Z,95162.74
2019-01-18T14:25:48.231Z,95162.53
2019-01-18T14:28:21.052Z,95152.33
2019-01-18T14:30:53.695Z,95155.11
2019-01-18T14:33:26.442Z,95152.65
2019-01-18T14:35:59.136Z,95153.16
2019-01-18T14:38:31.906Z,95153.98
2019-01-18T14:41:04.684Z,95145.60
2019-01-18T14:43:37.295Z,95146.16
2019-01-18T14:46:09.935Z,95150.48
2019-01-18T14:48:42.502Z,95146.31
2019-01-18T14:51:15.084Z,95152.63
2019-01-18T14:53:47.665Z,95148.94
2019-01-18T14:56:22.687Z,95151.39
2019-01-18T14:58:55.260Z,95143.10
2019-01-18T15:01:27.922Z,95151.16
2019-01-18T15:04:01.640Z,95140.09
2019-01-18T15:06:34.332Z,95138.87
2019-01-18T15:09:12.046Z,95134.67
2019-01-18T15:11:44.648Z,95137.16
2019-01-18T15:14:17.329Z,95139.15
2019-01-18T15:16:49.909Z,95138.51
2019-01-18T15:19:22.564Z,95133.98
2019-01-18T15:21:55.287Z,95129.48
2019-01-18T15:24:27.915Z,95136.17
2019-01-18T15:27:00.582Z,95128.70
2019-01-18T15:29:33.174Z,95126.97
2019-01-18T15:32:05.823Z,95126.88
2019-01-18T15:34:38.599Z,95123.19
2019-01-18T15:37:11.304Z,95119.16
2019-01-18T15:39:44.059Z,95133.28
2019-01-18T15:42:16.664Z,95127.12
2019-01-18T15:44:49.287Z,95127.16
2019-01-18T15:47:21.918Z,95130.02
2019-01-18T15:49:54.623Z,95125.02
2019-01-18T15:52:27.365Z,95117.69
2019-01-18T15:55:00.233Z,95124.77
2019-01-18T15:57:32.865Z,95125.52
2019-01-18T16:00:08.856Z,95125.59
2019-01-18T16:02:41.535Z,95117.64
2019-01-18T16:05:14.194Z,95115.44
2019-01-18T16:07:46.766Z,95121.09
2019-01-18T16:10:19.697Z,95119.20
2019-01-18T16:12:52.357Z,95121.91
2019-01-18T16:15:32.603Z,95117.99
2019-01-18T16:18:10.227Z,95124.41
2019-01-18T16:20:42.867Z,95115.70
2019-01-18T16:23:15.530Z,95112.62
2019-01-18T16:25:48.163Z,95124.55
2019-01-18T16:28:20.854Z,95119.89
2019-01-18T16:30:53.562Z,95119.62
2019-01-18T16:33:28.030Z,95127.73
2019-01-18T16:36:00.625Z,95122.75
2019-01-18T16:38:33.300Z,95123.21
2019-01-18T16:41:05.934Z,95124.03
2019-01-18T16:43:43.278Z,95121.52
2019-01-18T16:46:16.270Z,95122.75
2019-01-18T16:48:48.968Z,95130.63
2019-01-18T16:51:21.543Z,95121.77
2019-01-18T16:53:54.315Z,95122.65
2019-01-18T16:56:26.954Z,95124.20
2019-01-18T16:58:59.746Z,95122.60
2019-01-18T17:01:32.487Z,95116.98
2019-01-18T17:04:05.122Z,95120.61
2019-01-18T17:06:37.756Z,95122.56
2019-01-18T17:09:11.041Z,95116.77
2019-01-18T17:11:43.674Z,95119.41
2019-01-18T17:14:16.265Z,95118.63
2019-01-18T17:16:48.847Z,95117.53
2019-01-18T17:19:21.553Z,95107.94
2019-01-18T17:21:54.257Z,95107.74
2019-01-18T17:24:26.937Z,95116.46
2019-01-18T17:27:00.562Z,95114.41
2019-01-18T17:29:33.236Z,95113.10
2019-01-18T17:32:05.821Z,95110.84
2019-01-18T17:34:38.464Z,95105.44
2019-01-18T17:37:24.169Z,95111.73
2019-01-18T17:40:26.085Z,95114.20
2019-01-18T17:44:06.884Z,95112.82
2019-01-18T17:47:04.226Z,95102.36
2019-01-18T17:50:44.053Z,95106.89
2019-01-18T17:54:14.279Z,95103.93
2019-01-18T17:57:16.733Z,95112.79
2019-01-18T18:01:06.340Z,95101.38
2019-01-18T18:04:42.056Z,95104.09
2019-01-18T18:08:19.662Z,95096.75
2019-01-18T18:12:02.560Z,95093.34
2019-01-18T18:15:29.832Z,95091.05
2019-01-18T18:18:34.290Z,95103.84
2019-01-18T18:22:20.689Z,95111.02
2019-01-18T18:25:46.811Z,95104.45
2019-01-18T18:29:25.313Z,95102.39
2019-01-18T18:33:00.550Z,95102.08
2019-01-18T18:36:30.457Z,95100.78
2019-01-18T18:39:59.576Z,95099.87
2019-01-18T18:43:07.326Z,95100.11
2019-01-18T18:46:57.979Z,95094.38
2019-01-18T18:50:37.967Z,95095.11
2019-01-18T18:54:24.532Z,95095.80
2019-01-18T18:57:35.538Z,95094.28
2019-01-18T19:01:03.800Z,95092.53
2019-01-18T19:04:37.568Z,95083.95
2019-01-18T19:08:06.097Z,95083.48
2019-01-18T19:11:46.405Z,95089.20
2019-01-18T19:15:09.578Z,95087.13
2019-01-18T19:18:13.449Z,95085.31
2019-01-18T19:21:46.298Z,95083.02
2019-01-18T19:24:57.926Z,95082.58
2019-01-18T19:28:12.590Z,95075.42
2019-01-18T19:31:17.290Z,95076.34
2019-01-18T19:34:36.761Z,95061.06
2019-01-18T19:38:08.381Z,95067.32
2019-01-18T19:41:50.297Z,95063.24
2019-01-18T19:45:20.831Z,95062.11
2019-01-18T19:48:38.815Z,95059.37
2019-01-18T19:52:04.133Z,95061.59
2019-01-18T19:55:13.631Z,95060.45
2019-01-18T19:58:43.468Z,95049.45
2019-01-18T20:02:40.792Z,95060.80
2019-01-18T20:06:01.448Z,95051.52
2019-01-18T20:09:42.179Z,95044.77
2019-01-18T20:13:41.048Z,95045.59
2019-01-18T20:16:50.408Z,95045.83
2019-01-18T20:20:11.209Z,95048.50
2019-01-18T20:24:01.723Z,95052.70
2019-01-18T20:27:40.434Z,95063.63
2019-01-18T20:31:09.320Z,95047.04
2019-01-18T20:34:18.865Z,95048.50
2019-01-18T20:37:23.541Z,95049.54
2019-01-18T20:40:59.782Z,95053.89
2019-01-18T20:44:23.872Z,95055.78
2019-01-18T20:47:43.293Z,95055.95
2019-01-18T20:51:01.295Z,95051.34
2019-01-18T20:54:17.794Z,95056.80
2019-01-18T20:57:55.400Z,95056.55
2019-01-18T21:01:11.870Z,95060.02
2019-01-18T21:04:51.813Z,95064.66
2019-01-18T21:08:26.947Z,95069.30
2019-01-18T21:12:17.377Z,95069.52
2019-01-18T21:15:35.750Z,95065.67
2019-01-18T21:18:48.737Z,95068.13
2019-01-18T21:22:38.485Z,95063.02
2019-01-18T21:25:54.255Z,95065.85
2019-01-18T21:28:45.912Z,95052.90
2019-01-18T21:32:33.159Z,95065.17
2019-01-18T21:35:54.570Z,95059.27
2019-01-18T21:39:17.622Z,95065.28
2019-01-18T21:42:39.691Z,95059.05
2019-01-18T21:46:24.437Z,95059.77
2019-01-18T21:49:23.111Z,95063.27
2019-01-18T21:52:50.427Z,95062.30
2019-01-18T21:56:09.710Z,95063.70
2019-01-18T21:59:16.624Z,95063.51
2019-01-18T22:02:45.218Z,95064.88
2019-01-18T22:05:58.036Z,95064.77
2019-01-18T22:09:29.274Z,95071.14
2019-01-18T22:12:25.908Z,95066.16
2019-01-18T22:16:09.982Z,95066.29
2019-01-18T22:19:42.064Z,95072.09
2019-01-18T22:22:36.038Z,95079.03
2019-01-18T22:25:37.588Z,95084.82
2019-01-18T22:29:15.121Z,95083.91
2019-01-18T22:32:22.780Z,95076.71
2019-01-18T22:35:31.469Z,95086.59
2019-01-18T22:39:07.336Z,95083.10
2019-01-18T22:42:25.859Z,95084.49
2019-01-18T22:45:51.350Z,95091.80
2019-01-18T22:49:09.751Z,95096.98
2019-01-18T22:52:29.303Z,95090.34
2019-01-18T22:56:09.307Z,95094.80
2019-01-18T22:59:50.953Z,95089.34
2019-01-18T23:03:11.066Z,95091.89
2019-01-18T23:06:20.073Z,95089.20
2019-01-18T23:09:52.491Z,95083.33
2019-01-18T23:13:04.027Z,95090.55
2019-01-18T23:15:57.187Z,95093.48
2019-01-18T23:19:16.473Z,95094.56
2019-01-18T23:22:33.366Z,95088.23
2019-01-18T23:25:17.986Z,95090.69
2019-01-18T23:28:37.278Z,95092.23
2019-01-18T23:31:26.412Z,95086.70
2019-01-18T23:34:18.716Z,95083.97
2019-01-18T23:37:13.084Z,95093.91
2019-01-18T23:40:35.930Z,95084.34
2019-01-18T23:44:02.185Z,95075.27
2019-01-18T23:47:24.029Z,95071.73
2019-01-18T23:50:58.134Z,95069.56
2019-01-18T23:53:48.354Z,95067.73
2019-01-18T23:57:09.619Z,95066.23
